createdAt,value
2024-02-08T00:00:47.893Z,44.08
2024-02-08T00:05:51.523Z,44.09
2024-02-08T00:10:56.531Z,43.95
2024-02-08T00:16:00.425Z,43.97
2024-02-08T00:21:04.037Z,44.00
2024-02-08T00:26:09.268Z,43.54
2024-02-08T00:31:12.893Z,44.13
2024-02-08T00:36:16.548Z,43.68
2024-02-08T00:41:24.420Z,43.80
2024-02-08T00:46:27.983Z,44.47
2024-02-08T00:51:32.462Z,44.45
2024-02-08T00:56:37.899Z,44.22
2024-02-08T01:01:42.274Z,43.68
2024-02-08T01:06:46.142Z,43.66
2024-02-08T01:11:51.117Z,43.94
2024-02-08T01:16:55.487Z,43.83
2024-02-08T01:21:59.265Z,44.09
2024-02-08T01:27:05.422Z,43.72
2024-02-08T01:32:09.243Z,44.32
2024-02-08T01:37:14.321Z,43.81
2024-02-08T01:42:19.292Z,43.29
2024-02-08T01:47:23.096Z,43.63
2024-02-08T01:52:26.751Z,44.40
2024-02-08T01:57:31.974Z,44.38
2024-02-08T02:02:37.353Z,43.89
2024-02-08T02:07:40.918Z,43.82
2024-02-08T02:12:46.876Z,44.09
2024-02-08T02:17:50.443Z,44.32
2024-02-08T02:22:55.406Z,44.74
2024-02-08T02:28:01.833Z,45.12
2024-02-08T02:33:07.208Z,45.33
2024-02-08T02:38:14.546Z,44.95
2024-02-08T02:43:19.025Z,44.69
2024-02-08T02:48:22.832Z,44.64
2024-02-08T02:53:30.509Z,44.67
2024-02-08T02:58:36.189Z,44.36
2024-02-08T03:03:41.667Z,44.45
2024-02-08T03:08:48.391Z,44.50
2024-02-08T03:13:52.229Z,45.25
2024-02-08T03:18:58.113Z,45.18
2024-02-08T03:24:03.247Z,45.22
2024-02-08T03:29:06.985Z,45.21
2024-02-08T03:34:10.613Z,45.25
2024-02-08T03:39:26.875Z,45.09
2024-02-08T03:44:32.190Z,45.10
2024-02-08T03:49:36.519Z,45.41
2024-02-08T03:54:42.280Z,45.01
2024-02-08T03:59:45.932Z,44.96
2024-02-08T04:04:51.818Z,44.92
2024-02-08T04:09:58.057Z,45.03
2024-02-08T04:15:21.629Z,45.90
2024-02-08T04:20:42.566Z,45.98
2024-02-08T04:26:05.073Z,45.62
2024-02-08T04:31:28.339Z,45.87
2024-02-08T04:36:49.411Z,45.42
2024-02-08T04:42:11.978Z,46.06
2024-02-08T04:47:32.815Z,45.67
2024-02-08T04:52:53.913Z,45.50
2024-02-08T04:58:27.354Z,45.43
2024-02-08T05:03:23.990Z,45.25
2024-02-08T05:08:27.523Z,45.36
2024-02-08T05:13:32.434Z,45.25
2024-02-08T05:18:38.054Z,46.01
2024-02-08T05:23:42.942Z,45.94
2024-02-08T05:28:49.491Z,46.35
2024-02-08T05:33:53.585Z,46.38
2024-02-08T05:38:57.988Z,46.20
2024-02-08T05:44:06.403Z,45.93
2024-02-08T05:49:15.285Z,45.77
2024-02-08T05:54:21.865Z,45.49
2024-02-08T05:59:30.510Z,47.05
2024-02-08T06:04:37.071Z,46.15
2024-02-08T06:09:50.271Z,46.01
2024-02-08T06:14:59.680Z,45.55
2024-02-08T06:20:10.228Z,45.13
2024-02-08T06:25:29.048Z,45.10
2024-02-08T06:30:34.468Z,44.73
2024-02-08T06:35:39.975Z,47.03
2024-02-08T06:40:52.745Z,47.67
2024-02-08T06:46:19.256Z,47.46
2024-02-08T06:51:37.123Z,47.67
2024-02-08T06:56:58.700Z,47.10
2024-02-08T07:02:21.353Z,46.15
2024-02-08T07:07:43.416Z,45.39
2024-02-08T07:13:04.391Z,45.08
2024-02-08T07:18:28.096Z,45.12
2024-02-08T07:23:49.096Z,44.71
2024-02-08T07:29:10.352Z,44.80
2024-02-08T07:34:33.196Z,44.51
2024-02-08T07:39:40.553Z,45.79
2024-02-08T07:44:49.659Z,45.87
2024-02-08T07:49:59.559Z,45.06
2024-02-08T07:55:21.359Z,44.75
2024-02-08T08:05:56.644Z,44.94
2024-02-08T08:11:05.101Z,45.08
2024-02-08T08:16:22.844Z,46.17
2024-02-08T08:21:28.811Z,45.37
2024-02-08T08:26:40.272Z,47.74
2024-02-08T08:31:52.693Z,47.04
2024-02-08T08:37:03.898Z,46.02
2024-02-08T08:42:08.162Z,45.75
2024-02-08T08:47:11.746Z,46.53
2024-02-08T08:52:25.187Z,46.39
2024-02-08T08:57:29.290Z,46.20
2024-02-08T09:02:32.868Z,44.98
2024-02-08T09:07:39.174Z,45.88
2024-02-08T09:12:59.684Z,44.78
2024-02-08T09:18:11.174Z,44.71
2024-02-08T09:23:18.915Z,44.81
2024-02-08T09:28:31.097Z,45.38
2024-02-08T09:33:47.025Z,45.06
2024-02-08T09:38:53.060Z,44.06
2024-02-08T09:43:59.288Z,44.09
2024-02-08T09:49:14.216Z,43.96
2024-02-08T09:54:28.582Z,43.25
2024-02-08T10:00:01.364Z,42.76
2024-02-08T10:05:42.547Z,42.97
2024-02-08T10:11:01.273Z,43.61
2024-02-08T10:16:14.020Z,42.28
2024-02-08T10:21:19.327Z,43.63
2024-02-08T10:26:28.312Z,42.57
2024-02-08T10:31:38.723Z,42.07
2024-02-08T10:36:47.185Z,42.23
2024-02-08T10:42:00.155Z,39.94
2024-02-08T10:47:09.287Z,40.70
2024-02-08T10:52:17.843Z,39.27
2024-02-08T10:57:41.442Z,38.59
2024-02-08T11:02:50.932Z,38.60
2024-02-08T11:07:55.449Z,39.04
2024-02-08T11:13:03.645Z,38.56
2024-02-08T11:18:12.309Z,38.55
2024-02-08T11:23:24.701Z,38.18
2024-02-08T11:28:45.096Z,37.82
2024-02-08T11:33:51.128Z,38.36
2024-02-08T11:38:59.297Z,38.50
2024-02-08T11:44:07.107Z,38.28
2024-02-08T11:49:17.081Z,37.83
2024-02-08T11:54:28.927Z,38.17
2024-02-08T11:59:37.132Z,38.40
2024-02-08T12:04:40.961Z,38.60
2024-02-08T12:09:45.283Z,38.63
2024-02-08T12:14:55.654Z,38.09
2024-02-08T12:20:01.417Z,38.35
2024-02-08T12:25:09.097Z,37.49
2024-02-08T12:30:15.030Z,37.47
2024-02-08T12:35:26.480Z,37.21
2024-02-08T12:40:34.067Z,37.05
2024-02-08T12:45:40.316Z,37.62
2024-02-08T12:50:44.387Z,37.61
2024-02-08T12:55:49.130Z,38.16
2024-02-08T13:01:05.906Z,38.13
2024-02-08T13:06:14.030Z,37.69
2024-02-08T13:11:21.975Z,37.91
2024-02-08T13:16:27.040Z,38.24
2024-02-08T13:21:30.612Z,38.59
2024-02-08T13:26:37.608Z,38.56
2024-02-08T13:31:45.459Z,38.86
2024-02-08T13:36:49.148Z,39.04
2024-02-08T13:41:53.010Z,39.45
2024-02-08T13:46:58.139Z,39.63
2024-02-08T13:52:02.731Z,39.21
2024-02-08T13:57:24.791Z,39.21
2024-02-08T14:02:30.291Z,40.04
2024-02-08T14:07:34.166Z,40.10
2024-02-08T14:12:46.168Z,40.29
2024-02-08T14:17:56.418Z,40.35
2024-02-08T14:23:02.096Z,39.97
2024-02-08T14:28:10.920Z,39.59
2024-02-08T14:33:20.422Z,39.66
2024-02-08T14:38:24.201Z,39.79
2024-02-08T14:43:32.904Z,40.93
2024-02-08T14:48:39.530Z,42.26
2024-02-08T14:53:46.006Z,40.46
2024-02-08T14:58:57.973Z,41.18
2024-02-08T15:04:03.580Z,41.64
2024-02-08T15:09:24.357Z,42.10
2024-02-08T15:14:36.809Z,42.30
2024-02-08T15:19:46.791Z,42.62
2024-02-08T15:24:51.303Z,43.17
2024-02-08T15:30:11.958Z,44.26
2024-02-08T15:35:27.616Z,43.75
2024-02-08T15:40:32.510Z,43.37
2024-02-08T15:45:36.222Z,43.94
2024-02-08T15:50:45.230Z,45.43
2024-02-08T15:55:51.056Z,44.25
2024-02-08T16:01:12.137Z,45.04
2024-02-08T16:06:35.371Z,45.60
2024-02-08T16:11:44.155Z,46.32
2024-02-08T16:17:07.206Z,46.23
2024-02-08T16:22:21.570Z,45.86
2024-02-08T16:27:28.929Z,45.90
2024-02-08T16:32:40.366Z,45.69
2024-02-08T16:37:52.753Z,46.30
2024-02-08T16:43:02.950Z,46.26
2024-02-08T16:48:16.158Z,46.09
2024-02-08T16:53:35.379Z,46.06
2024-02-08T16:58:51.917Z,46.04
2024-02-08T17:04:19.179Z,46.73
2024-02-08T17:09:26.464Z,46.66
2024-02-08T17:14:38.286Z,46.96
2024-02-08T17:19:59.658Z,46.90
2024-02-08T17:25:25.404Z,47.19
2024-02-08T17:30:53.161Z,47.68
2024-02-08T17:36:00.473Z,47.12
2024-02-08T17:41:09.981Z,47.37
2024-02-08T17:46:13.983Z,47.81
2024-02-08T17:51:22.819Z,47.97
2024-02-08T17:56:33.111Z,48.50
2024-02-08T18:01:56.151Z,48.06
2024-02-08T18:07:10.671Z,49.01
2024-02-08T18:12:53.728Z,47.82
2024-02-08T18:18:05.990Z,48.64
2024-02-08T18:23:11.255Z,49.29
2024-02-08T18:28:16.272Z,49.00
2024-02-08T18:33:27.867Z,48.45
2024-02-08T18:38:34.755Z,48.89
2024-02-08T18:43:43.703Z,48.50
2024-02-08T18:48:54.673Z,49.38
2024-02-08T18:54:00.514Z,49.82
2024-02-08T18:59:06.518Z,49.03
2024-02-08T19:04:12.194Z,49.56
2024-02-08T19:09:20.479Z,49.47
2024-02-08T19:14:27.851Z,49.35
2024-02-08T19:19:35.440Z,49.21
2024-02-08T19:24:42.717Z,50.48
2024-02-08T19:29:47.880Z,49.53
2024-02-08T19:34:53.104Z,50.12
2024-02-08T19:39:57.047Z,49.91
2024-02-08T19:45:13.044Z,50.22
2024-02-08T19:50:22.703Z,49.53
2024-02-08T19:55:34.781Z,50.55
2024-02-08T20:00:46.532Z,49.86
2024-02-08T20:06:12.577Z,50.89
2024-02-08T20:11:20.691Z,50.72
2024-02-08T20:16:28.626Z,50.60
2024-02-08T20:21:35.409Z,50.00
2024-02-08T20:26:49.268Z,51.71
2024-02-08T20:31:56.189Z,50.97
2024-02-08T20:37:02.159Z,50.32
2024-02-08T20:42:13.440Z,51.41
2024-02-08T20:47:25.696Z,50.18
2024-02-08T20:52:35.442Z,50.31
2024-02-08T20:57:41.231Z,50.38
2024-02-08T21:02:48.087Z,50.08
2024-02-08T21:07:51.825Z,49.89
2024-02-08T21:13:01.090Z,49.67
2024-02-08T21:18:08.204Z,50.82
2024-02-08T21:23:12.104Z,50.54
2024-02-08T21:28:19.107Z,51.30
2024-02-08T21:33:24.480Z,51.45
2024-02-08T21:38:30.128Z,51.13
2024-02-08T21:43:34.779Z,51.11
2024-02-08T21:48:42.410Z,50.92
2024-02-08T21:53:46.274Z,50.94
2024-02-08T21:58:50.087Z,51.13
2024-02-08T22:03:55.709Z,52.40
2024-02-08T22:08:59.380Z,50.39
2024-02-08T22:14:03.236Z,53.08
2024-02-08T22:19:09.162Z,49.54
2024-02-08T22:24:13.938Z,51.82
2024-02-08T22:29:17.758Z,51.75
2024-02-08T22:34:22.872Z,52.92
2024-02-08T22:39:26.722Z,52.47
2024-02-08T22:44:30.906Z,52.26
2024-02-08T22:49:36.463Z,51.76
2024-02-08T22:54:59.006Z,51.60
2024-02-08T23:00:31.810Z,53.42
2024-02-08T23:05:40.967Z,53.45
2024-02-08T23:10:44.830Z,52.92
2024-02-08T23:15:50.503Z,53.70
2024-02-08T23:21:14.239Z,52.29
2024-02-08T23:26:20.575Z,52.50
2024-02-08T23:31:25.813Z,51.57
2024-02-08T23:36:34.114Z,52.03
2024-02-08T23:41:38.277Z,53.80
2024-02-08T23:46:43.377Z,53.38
2024-02-08T23:51:49.286Z,53.55
2024-02-08T23:56:56.569Z,53.28
